Terminal Aerodrome Forecast
Issued by NWS

Home | Current Version | Previous Version | Graphics & Text | Print | Product List | Glossary On
Versions: 1 2 3 4 5 6 7 8 9 10 11 12 13 14 15
765
FTUS43 KICT 202145 AAA
TAFCNU
TAF AMD
KCNU 202145Z 2022/2118 18013KT P6SM SKC
     FM202300 16009KT P6SM BKN045
     FM210800 18010KT 5SM BR BKN003
     FM211500 19015G23KT P6SM BKN003=

USA.gov is the U.S. government's official web portal to all federal, state and local government web resources and services.